sensor_id;sensor_type;location;lat;lon;timestamp;P1;durP1;ratioP1;P2;durP2;ratioP2
44722;SDS011;30451;48.638;10.624;2023-08-08T00:01:03;1.52;;;1.20;;
44722;SDS011;30451;48.638;10.624;2023-08-08T00:03:28;1.98;;;1.20;;
44722;SDS011;30451;48.638;10.624;2023-08-08T00:05:54;2.28;;;1.40;;
44722;SDS011;30451;48.638;10.624;2023-08-08T00:08:19;1.95;;;1.13;;
44722;SDS011;30451;48.638;10.624;2023-08-08T00:10:45;1.67;;;1.30;;
44722;SDS011;30451;48.638;10.624;2023-08-08T00:13:11;1.65;;;1.23;;
44722;SDS011;30451;48.638;10.624;2023-08-08T00:15:36;1.80;;;1.10;;
44722;SDS011;30451;48.638;10.624;2023-08-08T00:18:02;2.75;;;1.30;;
44722;SDS011;30451;48.638;10.624;2023-08-08T00:20:28;2.03;;;1.30;;
44722;SDS011;30451;48.638;10.624;2023-08-08T00:22:53;1.83;;;1.20;;
44722;SDS011;30451;48.638;10.624;2023-08-08T00:25:19;2.30;;;1.50;;
44722;SDS011;30451;48.638;10.624;2023-08-08T00:27:45;1.95;;;1.30;;
44722;SDS011;30451;48.638;10.624;2023-08-08T00:30:11;2.60;;;1.40;;
44722;SDS011;30451;48.638;10.624;2023-08-08T00:32:40;1.60;;;1.20;;
44722;SDS011;30451;48.638;10.624;2023-08-08T00:35:05;1.75;;;1.15;;
44722;SDS011;30451;48.638;10.624;2023-08-08T00:37:31;2.58;;;1.48;;
44722;SDS011;30451;48.638;10.624;2023-08-08T00:39:57;1.70;;;1.20;;
44722;SDS011;30451;48.638;10.624;2023-08-08T00:42:23;1.50;;;1.20;;
44722;SDS011;30451;48.638;10.624;2023-08-08T00:44:48;1.75;;;1.20;;
44722;SDS011;30451;48.638;10.624;2023-08-08T00:47:14;1.55;;;1.20;;
44722;SDS011;30451;48.638;10.624;2023-08-08T00:49:40;1.98;;;1.40;;
44722;SDS011;30451;48.638;10.624;2023-08-08T00:52:06;1.92;;;1.30;;
44722;SDS011;30451;48.638;10.624;2023-08-08T00:54:33;1.52;;;1.20;;
44722;SDS011;30451;48.638;10.624;2023-08-08T00:56:58;1.90;;;1.40;;
44722;SDS011;30451;48.638;10.624;2023-08-08T00:59:24;1.80;;;1.20;;
44722;SDS011;30451;48.638;10.624;2023-08-08T01:01:50;1.95;;;1.30;;
44722;SDS011;30451;48.638;10.624;2023-08-08T01:04:16;2.03;;;1.20;;
44722;SDS011;30451;48.638;10.624;2023-08-08T01:06:51;1.65;;;1.20;;
44722;SDS011;30451;48.638;10.624;2023-08-08T01:09:29;1.67;;;1.20;;
44722;SDS011;30451;48.638;10.624;2023-08-08T01:11:59;2.58;;;1.40;;
44722;SDS011;30451;48.638;10.624;2023-08-08T01:14:26;1.67;;;1.20;;
44722;SDS011;30451;48.638;10.624;2023-08-08T01:16:54;1.83;;;1.13;;
44722;SDS011;30451;48.638;10.624;2023-08-08T01:19:23;1.93;;;1.20;;
44722;SDS011;30451;48.638;10.624;2023-08-08T01:21:53;1.73;;;1.20;;
44722;SDS011;30451;48.638;10.624;2023-08-08T01:24:22;1.30;;;1.00;;
44722;SDS011;30451;48.638;10.624;2023-08-08T01:26:51;1.77;;;1.27;;
44722;SDS011;30451;48.638;10.624;2023-08-08T01:29:17;1.70;;;1.20;;
44722;SDS011;30451;48.638;10.624;2023-08-08T01:31:43;1.88;;;1.02;;
44722;SDS011;30451;48.638;10.624;2023-08-08T01:34:08;1.85;;;1.10;;
44722;SDS011;30451;48.638;10.624;2023-08-08T01:37:17;2.50;;;1.33;;
44722;SDS011;30451;48.638;10.624;2023-08-08T01:39:28;1.65;;;1.15;;
44722;SDS011;30451;48.638;10.624;2023-08-08T01:41:56;2.17;;;1.30;;
44722;SDS011;30451;48.638;10.624;2023-08-08T01:44:24;1.30;;;1.08;;
44722;SDS011;30451;48.638;10.624;2023-08-08T01:46:51;1.00;;;0.90;;
44722;SDS011;30451;48.638;10.624;2023-08-08T01:49:18;1.77;;;1.08;;
44722;SDS011;30451;48.638;10.624;2023-08-08T01:51:43;1.30;;;1.08;;
44722;SDS011;30451;48.638;10.624;2023-08-08T01:54:09;2.03;;;1.20;;
44722;SDS011;30451;48.638;10.624;2023-08-08T01:56:35;2.42;;;1.20;;
44722;SDS011;30451;48.638;10.624;2023-08-08T01:59:00;1.67;;;1.20;;
44722;SDS011;30451;48.638;10.624;2023-08-08T02:01:27;1.15;;;0.98;;
44722;SDS011;30451;48.638;10.624;2023-08-08T02:03:53;1.70;;;1.20;;
44722;SDS011;30451;48.638;10.624;2023-08-08T02:06:18;1.30;;;1.00;;
44722;SDS011;30451;48.638;10.624;2023-08-08T02:08:45;1.52;;;1.10;;
44722;SDS011;30451;48.638;10.624;2023-08-08T02:11:10;1.30;;;1.10;;
44722;SDS011;30451;48.638;10.624;2023-08-08T02:13:36;1.60;;;1.00;;
44722;SDS011;30451;48.638;10.624;2023-08-08T02:16:02;1.20;;;1.10;;
44722;SDS011;30451;48.638;10.624;2023-08-08T02:18:27;1.52;;;1.10;;
44722;SDS011;30451;48.638;10.624;2023-08-08T02:20:53;1.63;;;0.90;;
44722;SDS011;30451;48.638;10.624;2023-08-08T02:23:18;1.60;;;1.10;;
44722;SDS011;30451;48.638;10.624;2023-08-08T02:25:44;1.55;;;1.00;;
44722;SDS011;30451;48.638;10.624;2023-08-08T02:28:10;1.60;;;1.10;;
44722;SDS011;30451;48.638;10.624;2023-08-08T02:30:35;1.50;;;1.02;;
44722;SDS011;30451;48.638;10.624;2023-08-08T02:33:01;1.50;;;1.00;;
44722;SDS011;30451;48.638;10.624;2023-08-08T02:35:26;1.58;;;1.05;;
44722;SDS011;30451;48.638;10.624;2023-08-08T02:37:52;1.00;;;0.90;;
44722;SDS011;30451;48.638;10.624;2023-08-08T02:40:18;1.38;;;1.02;;
44722;SDS011;30451;48.638;10.624;2023-08-08T02:42:43;1.38;;;0.93;;
44722;SDS011;30451;48.638;10.624;2023-08-08T02:45:09;1.70;;;1.17;;
44722;SDS011;30451;48.638;10.624;2023-08-08T02:47:34;1.50;;;1.00;;
44722;SDS011;30451;48.638;10.624;2023-08-08T02:50:00;1.30;;;1.00;;
44722;SDS011;30451;48.638;10.624;2023-08-08T02:52:26;1.50;;;1.00;;
44722;SDS011;30451;48.638;10.624;2023-08-08T02:54:52;1.23;;;1.00;;
44722;SDS011;30451;48.638;10.624;2023-08-08T02:57:17;1.75;;;1.00;;
44722;SDS011;30451;48.638;10.624;2023-08-08T02:59:43;1.17;;;1.00;;
44722;SDS011;30451;48.638;10.624;2023-08-08T03:02:08;1.52;;;1.00;;
44722;SDS011;30451;48.638;10.624;2023-08-08T03:04:34;1.48;;;1.10;;
44722;SDS011;30451;48.638;10.624;2023-08-08T03:07:00;1.90;;;1.10;;
44722;SDS011;30451;48.638;10.624;2023-08-08T03:09:29;1.70;;;1.10;;
44722;SDS011;30451;48.638;10.624;2023-08-08T03:11:55;1.60;;;1.10;;
44722;SDS011;30451;48.638;10.624;2023-08-08T03:14:20;1.65;;;1.05;;
44722;SDS011;30451;48.638;10.624;2023-08-08T03:16:46;2.60;;;1.05;;
44722;SDS011;30451;48.638;10.624;2023-08-08T03:19:12;1.20;;;0.90;;
44722;SDS011;30451;48.638;10.624;2023-08-08T03:21:37;1.60;;;1.10;;
44722;SDS011;30451;48.638;10.624;2023-08-08T03:24:03;1.60;;;1.13;;
44722;SDS011;30451;48.638;10.624;2023-08-08T03:26:29;1.17;;;0.82;;
44722;SDS011;30451;48.638;10.624;2023-08-08T03:28:54;0.90;;;0.80;;
44722;SDS011;30451;48.638;10.624;2023-08-08T03:31:20;1.38;;;1.00;;
44722;SDS011;30451;48.638;10.624;2023-08-08T03:33:46;1.45;;;1.10;;
44722;SDS011;30451;48.638;10.624;2023-08-08T03:36:12;1.33;;;0.90;;
44722;SDS011;30451;48.638;10.624;2023-08-08T03:38:39;1.50;;;1.00;;
44722;SDS011;30451;48.638;10.624;2023-08-08T03:41:05;1.23;;;0.85;;
44722;SDS011;30451;48.638;10.624;2023-08-08T03:43:31;1.58;;;1.00;;
44722;SDS011;30451;48.638;10.624;2023-08-08T03:45:56;1.63;;;1.10;;
44722;SDS011;30451;48.638;10.624;2023-08-08T03:48:22;1.17;;;1.00;;
44722;SDS011;30451;48.638;10.624;2023-08-08T03:50:48;1.73;;;0.90;;
44722;SDS011;30451;48.638;10.624;2023-08-08T03:53:13;1.00;;;0.90;;
44722;SDS011;30451;48.638;10.624;2023-08-08T03:55:39;1.45;;;0.90;;
44722;SDS011;30451;48.638;10.624;2023-08-08T03:58:05;1.58;;;1.10;;
44722;SDS011;30451;48.638;10.624;2023-08-08T04:00:30;0.98;;;0.80;;
44722;SDS011;30451;48.638;10.624;2023-08-08T04:02:56;1.20;;;0.95;;
44722;SDS011;30451;48.638;10.624;2023-08-08T04:05:22;1.55;;;0.85;;
44722;SDS011;30451;48.638;10.624;2023-08-08T04:07:47;1.10;;;0.90;;
44722;SDS011;30451;48.638;10.624;2023-08-08T04:10:14;1.50;;;1.10;;
44722;SDS011;30451;48.638;10.624;2023-08-08T04:12:40;1.17;;;0.90;;
44722;SDS011;30451;48.638;10.624;2023-08-08T04:15:06;1.20;;;0.80;;
44722;SDS011;30451;48.638;10.624;2023-08-08T04:17:31;1.17;;;0.90;;
44722;SDS011;30451;48.638;10.624;2023-08-08T04:19:57;1.02;;;0.85;;
44722;SDS011;30451;48.638;10.624;2023-08-08T04:22:23;1.17;;;0.82;;
44722;SDS011;30451;48.638;10.624;2023-08-08T04:24:48;1.13;;;0.80;;
44722;SDS011;30451;48.638;10.624;2023-08-08T04:27:14;1.20;;;0.90;;
44722;SDS011;30451;48.638;10.624;2023-08-08T04:29:40;1.20;;;0.90;;
44722;SDS011;30451;48.638;10.624;2023-08-08T04:32:05;1.30;;;0.90;;
44722;SDS011;30451;48.638;10.624;2023-08-08T04:34:31;1.20;;;0.90;;
44722;SDS011;30451;48.638;10.624;2023-08-08T04:36:57;1.25;;;0.90;;
44722;SDS011;30451;48.638;10.624;2023-08-08T04:39:22;1.00;;;0.85;;
44722;SDS011;30451;48.638;10.624;2023-08-08T04:41:48;1.48;;;0.98;;
44722;SDS011;30451;48.638;10.624;2023-08-08T04:44:13;1.15;;;0.90;;
44722;SDS011;30451;48.638;10.624;2023-08-08T04:46:39;1.23;;;0.90;;
44722;SDS011;30451;48.638;10.624;2023-08-08T04:49:04;0.90;;;0.80;;
44722;SDS011;30451;48.638;10.624;2023-08-08T04:51:30;1.00;;;0.90;;
44722;SDS011;30451;48.638;10.624;2023-08-08T04:53:56;1.45;;;0.90;;
44722;SDS011;30451;48.638;10.624;2023-08-08T04:56:22;1.48;;;1.00;;
44722;SDS011;30451;48.638;10.624;2023-08-08T04:58:47;1.15;;;0.80;;
44722;SDS011;30451;48.638;10.624;2023-08-08T05:01:13;1.45;;;0.90;;
44722;SDS011;30451;48.638;10.624;2023-08-08T05:03:40;1.58;;;1.00;;
44722;SDS011;30451;48.638;10.624;2023-08-08T05:06:06;0.88;;;0.80;;
44722;SDS011;30451;48.638;10.624;2023-08-08T05:08:32;1.42;;;0.90;;
44722;SDS011;30451;48.638;10.624;2023-08-08T05:10:58;1.30;;;0.90;;
44722;SDS011;30451;48.638;10.624;2023-08-08T05:13:23;1.30;;;1.00;;
44722;SDS011;30451;48.638;10.624;2023-08-08T05:15:49;1.00;;;0.90;;
44722;SDS011;30451;48.638;10.624;2023-08-08T05:18:14;1.00;;;0.80;;
44722;SDS011;30451;48.638;10.624;2023-08-08T05:20:40;0.95;;;0.85;;
44722;SDS011;30451;48.638;10.624;2023-08-08T05:23:05;1.08;;;0.90;;
44722;SDS011;30451;48.638;10.624;2023-08-08T05:25:31;1.05;;;0.80;;
44722;SDS011;30451;48.638;10.624;2023-08-08T05:27:57;1.00;;;0.90;;
44722;SDS011;30451;48.638;10.624;2023-08-08T05:30:22;0.80;;;0.80;;
44722;SDS011;30451;48.638;10.624;2023-08-08T05:32:48;0.82;;;0.75;;
44722;SDS011;30451;48.638;10.624;2023-08-08T05:35:16;0.63;;;0.63;;
44722;SDS011;30451;48.638;10.624;2023-08-08T05:37:42;0.80;;;0.80;;
44722;SDS011;30451;48.638;10.624;2023-08-08T05:40:08;0.80;;;0.80;;
44722;SDS011;30451;48.638;10.624;2023-08-08T05:42:35;0.95;;;0.80;;
44722;SDS011;30451;48.638;10.624;2023-08-08T05:45:01;1.27;;;0.80;;
44722;SDS011;30451;48.638;10.624;2023-08-08T05:47:27;0.98;;;0.88;;
44722;SDS011;30451;48.638;10.624;2023-08-08T05:49:53;0.85;;;0.80;;
44722;SDS011;30451;48.638;10.624;2023-08-08T05:52:19;0.80;;;0.80;;
44722;SDS011;30451;48.638;10.624;2023-08-08T05:54:46;1.13;;;0.90;;
44722;SDS011;30451;48.638;10.624;2023-08-08T05:57:11;0.70;;;0.70;;
44722;SDS011;30451;48.638;10.624;2023-08-08T05:59:37;0.77;;;0.77;;
44722;SDS011;30451;48.638;10.624;2023-08-08T06:02:03;1.05;;;0.90;;
44722;SDS011;30451;48.638;10.624;2023-08-08T06:04:28;1.00;;;0.90;;
44722;SDS011;30451;48.638;10.624;2023-08-08T06:06:54;1.08;;;0.80;;
44722;SDS011;30451;48.638;10.624;2023-08-08T06:09:20;0.88;;;0.80;;
44722;SDS011;30451;48.638;10.624;2023-08-08T06:11:45;0.82;;;0.80;;
44722;SDS011;30451;48.638;10.624;2023-08-08T06:14:11;0.77;;;0.73;;
44722;SDS011;30451;48.638;10.624;2023-08-08T06:16:37;1.00;;;0.80;;
44722;SDS011;30451;48.638;10.624;2023-08-08T06:19:02;1.55;;;0.90;;
44722;SDS011;30451;48.638;10.624;2023-08-08T06:21:28;1.20;;;0.90;;
44722;SDS011;30451;48.638;10.624;2023-08-08T06:23:53;0.88;;;0.80;;
44722;SDS011;30451;48.638;10.624;2023-08-08T06:26:20;0.95;;;0.80;;
44722;SDS011;30451;48.638;10.624;2023-08-08T06:28:47;0.88;;;0.70;;
44722;SDS011;30451;48.638;10.624;2023-08-08T06:31:13;1.40;;;0.90;;
44722;SDS011;30451;48.638;10.624;2023-08-08T06:33:39;1.17;;;0.80;;
44722;SDS011;30451;48.638;10.624;2023-08-08T06:36:05;1.08;;;0.90;;
44722;SDS011;30451;48.638;10.624;2023-08-08T06:38:30;1.10;;;0.80;;
44722;SDS011;30451;48.638;10.624;2023-08-08T06:41:08;0.77;;;0.70;;
44722;SDS011;30451;48.638;10.624;2023-08-08T06:43:33;0.85;;;0.73;;
44722;SDS011;30451;48.638;10.624;2023-08-08T06:45:59;1.15;;;0.80;;
44722;SDS011;30451;48.638;10.624;2023-08-08T06:48:25;1.08;;;0.70;;
44722;SDS011;30451;48.638;10.624;2023-08-08T06:50:51;1.02;;;0.80;;
44722;SDS011;30451;48.638;10.624;2023-08-08T06:53:17;0.77;;;0.70;;
44722;SDS011;30451;48.638;10.624;2023-08-08T06:55:43;0.70;;;0.68;;
44722;SDS011;30451;48.638;10.624;2023-08-08T06:58:08;0.93;;;0.80;;
44722;SDS011;30451;48.638;10.624;2023-08-08T07:00:34;1.45;;;0.90;;
44722;SDS011;30451;48.638;10.624;2023-08-08T07:03:00;0.73;;;0.70;;
44722;SDS011;30451;48.638;10.624;2023-08-08T07:05:25;1.17;;;0.80;;
44722;SDS011;30451;48.638;10.624;2023-08-08T07:07:51;1.40;;;0.90;;
44722;SDS011;30451;48.638;10.624;2023-08-08T07:10:17;1.08;;;0.80;;
44722;SDS011;30451;48.638;10.624;2023-08-08T07:12:44;1.00;;;0.80;;
44722;SDS011;30451;48.638;10.624;2023-08-08T07:15:09;0.75;;;0.70;;
44722;SDS011;30451;48.638;10.624;2023-08-08T07:17:35;1.23;;;0.80;;
44722;SDS011;30451;48.638;10.624;2023-08-08T07:20:01;0.82;;;0.70;;
44722;SDS011;30451;48.638;10.624;2023-08-08T07:22:27;0.95;;;0.70;;
44722;SDS011;30451;48.638;10.624;2023-08-08T07:24:53;0.60;;;0.60;;
44722;SDS011;30451;48.638;10.624;2023-08-08T07:27:18;0.70;;;0.70;;
44722;SDS011;30451;48.638;10.624;2023-08-08T07:29:44;0.90;;;0.80;;
44722;SDS011;30451;48.638;10.624;2023-08-08T07:32:10;1.08;;;0.70;;
44722;SDS011;30451;48.638;10.624;2023-08-08T07:34:36;0.75;;;0.73;;
44722;SDS011;30451;48.638;10.624;2023-08-08T07:37:01;0.82;;;0.70;;
44722;SDS011;30451;48.638;10.624;2023-08-08T07:39:28;0.77;;;0.70;;
44722;SDS011;30451;48.638;10.624;2023-08-08T07:41:54;0.65;;;0.65;;
44722;SDS011;30451;48.638;10.624;2023-08-08T07:44:19;1.25;;;0.80;;
44722;SDS011;30451;48.638;10.624;2023-08-08T07:46:45;1.08;;;0.80;;
44722;SDS011;30451;48.638;10.624;2023-08-08T07:49:11;0.50;;;0.50;;
44722;SDS011;30451;48.638;10.624;2023-08-08T07:51:37;0.80;;;0.70;;
44722;SDS011;30451;48.638;10.624;2023-08-08T07:54:02;0.93;;;0.70;;
44722;SDS011;30451;48.638;10.624;2023-08-08T07:56:30;0.90;;;0.70;;
44722;SDS011;30451;48.638;10.624;2023-08-08T07:58:56;0.90;;;0.80;;
44722;SDS011;30451;48.638;10.624;2023-08-08T08:01:21;0.98;;;0.80;;
44722;SDS011;30451;48.638;10.624;2023-08-08T08:03:48;0.70;;;0.70;;
44722;SDS011;30451;48.638;10.624;2023-08-08T08:06:13;0.68;;;0.65;;
44722;SDS011;30451;48.638;10.624;2023-08-08T08:08:39;0.93;;;0.77;;
44722;SDS011;30451;48.638;10.624;2023-08-08T08:11:05;0.90;;;0.60;;
44722;SDS011;30451;48.638;10.624;2023-08-08T08:13:30;0.60;;;0.60;;
44722;SDS011;30451;48.638;10.624;2023-08-08T08:15:56;0.80;;;0.60;;
44722;SDS011;30451;48.638;10.624;2023-08-08T08:18:21;0.75;;;0.60;;
44722;SDS011;30451;48.638;10.624;2023-08-08T08:20:48;0.60;;;0.60;;
44722;SDS011;30451;48.638;10.624;2023-08-08T08:23:14;0.80;;;0.70;;
44722;SDS011;30451;48.638;10.624;2023-08-08T08:25:39;1.00;;;0.70;;
44722;SDS011;30451;48.638;10.624;2023-08-08T08:28:05;1.63;;;0.60;;
44722;SDS011;30451;48.638;10.624;2023-08-08T08:30:30;0.90;;;0.65;;
44722;SDS011;30451;48.638;10.624;2023-08-08T08:32:56;1.00;;;0.80;;
44722;SDS011;30451;48.638;10.624;2023-08-08T08:35:22;0.70;;;0.70;;
44722;SDS011;30451;48.638;10.624;2023-08-08T08:37:48;0.77;;;0.70;;
44722;SDS011;30451;48.638;10.624;2023-08-08T08:40:14;1.05;;;0.75;;
44722;SDS011;30451;48.638;10.624;2023-08-08T08:42:40;1.10;;;0.77;;
44722;SDS011;30451;48.638;10.624;2023-08-08T08:45:06;0.93;;;0.60;;
44722;SDS011;30451;48.638;10.624;2023-08-08T08:47:34;0.80;;;0.70;;
44722;SDS011;30451;48.638;10.624;2023-08-08T08:50:02;0.88;;;0.65;;
44722;SDS011;30451;48.638;10.624;2023-08-08T08:52:29;0.98;;;0.77;;
44722;SDS011;30451;48.638;10.624;2023-08-08T08:54:55;0.95;;;0.77;;
44722;SDS011;30451;48.638;10.624;2023-08-08T08:57:21;0.60;;;0.60;;
44722;SDS011;30451;48.638;10.624;2023-08-08T08:59:48;0.88;;;0.60;;
44722;SDS011;30451;48.638;10.624;2023-08-08T09:02:15;0.88;;;0.75;;
44722;SDS011;30451;48.638;10.624;2023-08-08T09:04:40;0.85;;;0.60;;
44722;SDS011;30451;48.638;10.624;2023-08-08T09:07:07;2.20;;;0.75;;
44722;SDS011;30451;48.638;10.624;2023-08-08T09:09:34;0.85;;;0.60;;
44722;SDS011;30451;48.638;10.624;2023-08-08T09:12:02;0.82;;;0.75;;
44722;SDS011;30451;48.638;10.624;2023-08-08T09:14:30;1.15;;;0.70;;
44722;SDS011;30451;48.638;10.624;2023-08-08T09:16:56;0.93;;;0.65;;
44722;SDS011;30451;48.638;10.624;2023-08-08T09:19:23;0.80;;;0.70;;
44722;SDS011;30451;48.638;10.624;2023-08-08T09:21:49;0.98;;;0.80;;
44722;SDS011;30451;48.638;10.624;2023-08-08T09:24:16;0.60;;;0.60;;
44722;SDS011;30451;48.638;10.624;2023-08-08T09:26:43;1.10;;;0.80;;
44722;SDS011;30451;48.638;10.624;2023-08-08T09:29:10;0.73;;;0.70;;
44722;SDS011;30451;48.638;10.624;2023-08-08T09:31:37;1.10;;;0.70;;
44722;SDS011;30451;48.638;10.624;2023-08-08T09:34:04;1.15;;;0.70;;
44722;SDS011;30451;48.638;10.624;2023-08-08T09:36:30;1.15;;;0.82;;
44722;SDS011;30451;48.638;10.624;2023-08-08T09:38:56;0.70;;;0.68;;
44722;SDS011;30451;48.638;10.624;2023-08-08T09:41:22;1.00;;;0.73;;
44722;SDS011;30451;48.638;10.624;2023-08-08T09:43:48;0.95;;;0.65;;
44722;SDS011;30451;48.638;10.624;2023-08-08T09:46:15;1.20;;;0.60;;
44722;SDS011;30451;48.638;10.624;2023-08-08T09:48:41;1.38;;;0.70;;
44722;SDS011;30451;48.638;10.624;2023-08-08T09:51:07;1.17;;;0.70;;
44722;SDS011;30451;48.638;10.624;2023-08-08T09:53:33;1.20;;;0.70;;
44722;SDS011;30451;48.638;10.624;2023-08-08T09:56:01;0.80;;;0.70;;
44722;SDS011;30451;48.638;10.624;2023-08-08T09:58:28;0.67;;;0.60;;
44722;SDS011;30451;48.638;10.624;2023-08-08T10:00:54;1.20;;;0.70;;
44722;SDS011;30451;48.638;10.624;2023-08-08T10:03:20;1.30;;;0.70;;
44722;SDS011;30451;48.638;10.624;2023-08-08T10:05:47;0.65;;;0.60;;
44722;SDS011;30451;48.638;10.624;2023-08-08T10:08:16;0.77;;;0.60;;
44722;SDS011;30451;48.638;10.624;2023-08-08T10:10:43;0.90;;;0.70;;
44722;SDS011;30451;48.638;10.624;2023-08-08T10:13:18;0.90;;;0.70;;
44722;SDS011;30451;48.638;10.624;2023-08-08T10:15:47;0.70;;;0.70;;
44722;SDS011;30451;48.638;10.624;2023-08-08T10:18:13;1.13;;;0.70;;
44722;SDS011;30451;48.638;10.624;2023-08-08T10:20:42;0.80;;;0.60;;
44722;SDS011;30451;48.638;10.624;2023-08-08T10:23:09;1.05;;;0.70;;
44722;SDS011;30451;48.638;10.624;2023-08-08T10:25:35;0.60;;;0.60;;
44722;SDS011;30451;48.638;10.624;2023-08-08T10:28:02;0.95;;;0.70;;
44722;SDS011;30451;48.638;10.624;2023-08-08T10:30:30;0.73;;;0.60;;
44722;SDS011;30451;48.638;10.624;2023-08-08T10:33:14;0.80;;;0.60;;
44722;SDS011;30451;48.638;10.624;2023-08-08T10:35:54;0.65;;;0.60;;
44722;SDS011;30451;48.638;10.624;2023-08-08T10:38:23;0.60;;;0.60;;
44722;SDS011;30451;48.638;10.624;2023-08-08T10:40:56;0.82;;;0.60;;
44722;SDS011;30451;48.638;10.624;2023-08-08T10:43:26;0.93;;;0.55;;
44722;SDS011;30451;48.638;10.624;2023-08-08T10:45:56;0.90;;;0.70;;
44722;SDS011;30451;48.638;10.624;2023-08-08T10:48:26;0.68;;;0.68;;
44722;SDS011;30451;48.638;10.624;2023-08-08T10:50:54;0.90;;;0.70;;
44722;SDS011;30451;48.638;10.624;2023-08-08T10:53:22;0.80;;;0.60;;
44722;SDS011;30451;48.638;10.624;2023-08-08T10:56:24;0.68;;;0.65;;
44722;SDS011;30451;48.638;10.624;2023-08-08T10:58:47;0.80;;;0.60;;
44722;SDS011;30451;48.638;10.624;2023-08-08T11:03:40;0.75;;;0.60;;
44722;SDS011;30451;48.638;10.624;2023-08-08T11:06:06;0.60;;;0.60;;
44722;SDS011;30451;48.638;10.624;2023-08-08T11:08:33;0.73;;;0.68;;
44722;SDS011;30451;48.638;10.624;2023-08-08T11:11:00;1.38;;;0.80;;
44722;SDS011;30451;48.638;10.624;2023-08-08T11:13:25;0.98;;;0.70;;
44722;SDS011;30451;48.638;10.624;2023-08-08T11:15:51;0.90;;;0.70;;
44722;SDS011;30451;48.638;10.624;2023-08-08T11:18:17;0.70;;;0.60;;
44722;SDS011;30451;48.638;10.624;2023-08-08T11:20:43;0.90;;;0.70;;
44722;SDS011;30451;48.638;10.624;2023-08-08T11:23:09;0.95;;;0.70;;
44722;SDS011;30451;48.638;10.624;2023-08-08T11:25:36;0.80;;;0.70;;
44722;SDS011;30451;48.638;10.624;2023-08-08T11:28:04;0.57;;;0.57;;
44722;SDS011;30451;48.638;10.624;2023-08-08T11:30:31;1.05;;;0.63;;
44722;SDS011;30451;48.638;10.624;2023-08-08T11:32:59;0.60;;;0.60;;
44722;SDS011;30451;48.638;10.624;2023-08-08T11:35:26;0.80;;;0.63;;
44722;SDS011;30451;48.638;10.624;2023-08-08T11:37:55;0.85;;;0.70;;
44722;SDS011;30451;48.638;10.624;2023-08-08T11:40:22;0.80;;;0.65;;
44722;SDS011;30451;48.638;10.624;2023-08-08T11:42:50;0.77;;;0.65;;
44722;SDS011;30451;48.638;10.624;2023-08-08T11:45:16;1.33;;;0.70;;
44722;SDS011;30451;48.638;10.624;2023-08-08T11:47:43;0.73;;;0.60;;
44722;SDS011;30451;48.638;10.624;2023-08-08T11:50:09;0.80;;;0.60;;
44722;SDS011;30451;48.638;10.624;2023-08-08T11:52:39;1.20;;;0.80;;
44722;SDS011;30451;48.638;10.624;2023-08-08T11:55:06;0.60;;;0.60;;
44722;SDS011;30451;48.638;10.624;2023-08-08T11:57:33;1.10;;;0.80;;
44722;SDS011;30451;48.638;10.624;2023-08-08T12:00:05;1.00;;;0.80;;
44722;SDS011;30451;48.638;10.624;2023-08-08T12:02:32;0.60;;;0.60;;
44722;SDS011;30451;48.638;10.624;2023-08-08T12:05:09;1.45;;;0.70;;
44722;SDS011;30451;48.638;10.624;2023-08-08T12:10:13;0.70;;;0.60;;
44722;SDS011;30451;48.638;10.624;2023-08-08T12:12:44;1.17;;;0.70;;
44722;SDS011;30451;48.638;10.624;2023-08-08T12:15:11;0.70;;;0.63;;
44722;SDS011;30451;48.638;10.624;2023-08-08T12:17:37;0.50;;;0.50;;
44722;SDS011;30451;48.638;10.624;2023-08-08T12:20:03;1.60;;;0.75;;
44722;SDS011;30451;48.638;10.624;2023-08-08T12:22:33;1.48;;;0.80;;
44722;SDS011;30451;48.638;10.624;2023-08-08T12:24:59;0.80;;;0.70;;
44722;SDS011;30451;48.638;10.624;2023-08-08T12:27:25;0.70;;;0.60;;
44722;SDS011;30451;48.638;10.624;2023-08-08T12:29:51;1.13;;;0.73;;
44722;SDS011;30451;48.638;10.624;2023-08-08T12:32:19;1.15;;;0.70;;
44722;SDS011;30451;48.638;10.624;2023-08-08T12:34:45;0.90;;;0.75;;
44722;SDS011;30451;48.638;10.624;2023-08-08T12:37:10;1.45;;;0.60;;
44722;SDS011;30451;48.638;10.624;2023-08-08T12:39:36;1.08;;;0.70;;
44722;SDS011;30451;48.638;10.624;2023-08-08T12:42:01;1.15;;;0.80;;
44722;SDS011;30451;48.638;10.624;2023-08-08T12:44:27;0.98;;;0.73;;
44722;SDS011;30451;48.638;10.624;2023-08-08T12:46:52;1.23;;;0.73;;
44722;SDS011;30451;48.638;10.624;2023-08-08T12:49:18;1.08;;;0.70;;
44722;SDS011;30451;48.638;10.624;2023-08-08T12:51:44;0.88;;;0.60;;
44722;SDS011;30451;48.638;10.624;2023-08-08T12:54:09;1.00;;;0.80;;
44722;SDS011;30451;48.638;10.624;2023-08-08T12:56:35;0.73;;;0.60;;
44722;SDS011;30451;48.638;10.624;2023-08-08T12:59:01;0.88;;;0.80;;
44722;SDS011;30451;48.638;10.624;2023-08-08T13:01:28;1.58;;;0.70;;
44722;SDS011;30451;48.638;10.624;2023-08-08T13:03:53;0.95;;;0.70;;
44722;SDS011;30451;48.638;10.624;2023-08-08T13:06:19;0.82;;;0.60;;
44722;SDS011;30451;48.638;10.624;2023-08-08T13:08:45;1.17;;;0.70;;
44722;SDS011;30451;48.638;10.624;2023-08-08T13:11:10;0.70;;;0.63;;
44722;SDS011;30451;48.638;10.624;2023-08-08T13:13:36;0.82;;;0.65;;
44722;SDS011;30451;48.638;10.624;2023-08-08T13:16:02;0.88;;;0.60;;
44722;SDS011;30451;48.638;10.624;2023-08-08T13:18:28;0.93;;;0.70;;
44722;SDS011;30451;48.638;10.624;2023-08-08T13:20:53;0.60;;;0.60;;
44722;SDS011;30451;48.638;10.624;2023-08-08T13:23:19;0.98;;;0.77;;
44722;SDS011;30451;48.638;10.624;2023-08-08T13:25:45;0.90;;;0.60;;
44722;SDS011;30451;48.638;10.624;2023-08-08T13:28:10;0.82;;;0.70;;
44722;SDS011;30451;48.638;10.624;2023-08-08T13:30:36;1.20;;;0.90;;
44722;SDS011;30451;48.638;10.624;2023-08-08T13:33:02;0.98;;;0.70;;
44722;SDS011;30451;48.638;10.624;2023-08-08T13:35:28;0.60;;;0.60;;
44722;SDS011;30451;48.638;10.624;2023-08-08T13:37:55;1.35;;;0.70;;
44722;SDS011;30451;48.638;10.624;2023-08-08T13:40:20;0.60;;;0.60;;
44722;SDS011;30451;48.638;10.624;2023-08-08T13:42:46;0.77;;;0.68;;
44722;SDS011;30451;48.638;10.624;2023-08-08T13:45:13;0.82;;;0.63;;
44722;SDS011;30451;48.638;10.624;2023-08-08T13:47:39;0.65;;;0.63;;
44722;SDS011;30451;48.638;10.624;2023-08-08T13:50:05;1.15;;;0.70;;
44722;SDS011;30451;48.638;10.624;2023-08-08T13:52:31;1.20;;;0.77;;
44722;SDS011;30451;48.638;10.624;2023-08-08T13:54:58;0.90;;;0.65;;
44722;SDS011;30451;48.638;10.624;2023-08-08T13:57:24;0.90;;;0.70;;
44722;SDS011;30451;48.638;10.624;2023-08-08T13:59:49;0.60;;;0.60;;
44722;SDS011;30451;48.638;10.624;2023-08-08T14:02:15;0.70;;;0.70;;
44722;SDS011;30451;48.638;10.624;2023-08-08T14:04:43;0.70;;;0.60;;
44722;SDS011;30451;48.638;10.624;2023-08-08T14:07:09;0.70;;;0.70;;
44722;SDS011;30451;48.638;10.624;2023-08-08T14:09:35;0.73;;;0.70;;
44722;SDS011;30451;48.638;10.624;2023-08-08T14:12:01;0.90;;;0.70;;
44722;SDS011;30451;48.638;10.624;2023-08-08T14:14:26;0.70;;;0.70;;
44722;SDS011;30451;48.638;10.624;2023-08-08T14:16:52;0.80;;;0.70;;
44722;SDS011;30451;48.638;10.624;2023-08-08T14:19:18;0.93;;;0.70;;
44722;SDS011;30451;48.638;10.624;2023-08-08T14:21:44;0.68;;;0.52;;
44722;SDS011;30451;48.638;10.624;2023-08-08T14:24:09;0.57;;;0.57;;
44722;SDS011;30451;48.638;10.624;2023-08-08T14:26:35;0.77;;;0.65;;
44722;SDS011;30451;48.638;10.624;2023-08-08T14:29:01;0.70;;;0.55;;
44722;SDS011;30451;48.638;10.624;2023-08-08T14:31:26;0.60;;;0.60;;
44722;SDS011;30451;48.638;10.624;2023-08-08T14:33:52;0.75;;;0.68;;